Time;durP1;ratioP1;P1;durP2;ratioP2;P2;SDS_P1;SDS_P2;PMS_P1;PMS_P2;Temp;Humidity;BMP_temperature;BMP_pressure;BME280_temperature;BME280_humidity;BME280_pressure;Samples;Min_cycle;Max_cycle;Signal;HPM_P1;HPM_P2
2021/09/25 00:00:26;;;;;;;;;22.25;20.75;;;;;;;;4994343;28;52727;-61
2021/09/25 00:02:51;;;;;;;;;22.00;21.50;;;;;;;;4995140;28;50988;-61
2021/09/25 00:05:16;;;;;;;;;24.00;23.75;;;;;;;;5013159;28;51156;-61
2021/09/25 00:07:41;;;;;;;;;23.75;22.25;;;;;;;;5009277;28;51214;-62
2021/09/25 00:10:07;;;;;;;;;20.50;20.50;;;;;;;;5003493;28;51067;-62
2021/09/25 00:12:32;;;;;;;;;21.75;21.25;;;;;;;;4994179;28;51113;-62
2021/09/25 00:14:57;;;;;;;;;23.75;22.50;;;;;;;;5003760;28;51066;-61
2021/09/25 00:17:23;;;;;;;;;16.50;16.25;;;;;;;;4996394;28;51371;-60
2021/09/25 00:19:48;;;;;;;;;21.75;21.75;;;;;;;;4998950;28;51841;-61
2021/09/25 00:22:14;;;;;;;;;21.50;20.25;;;;;;;;5014058;28;51059;-61
2021/09/25 00:24:39;;;;;;;;;18.25;17.25;;;;;;;;5014166;28;51042;-61
2021/09/25 00:27:04;;;;;;;;;22.25;20.00;;;;;;;;5007012;28;51009;-61
2021/09/25 00:29:30;;;;;;;;;23.50;20.50;;;;;;;;4992828;28;50989;-61
2021/09/25 00:31:55;;;;;;;;;18.75;18.25;;;;;;;;4994196;28;50912;-60
2021/09/25 00:34:20;;;;;;;;;22.00;21.75;;;;;;;;4999645;28;50936;-61
2021/09/25 00:36:46;;;;;;;;;20.50;20.25;;;;;;;;4998364;28;51090;-61
2021/09/25 00:39:11;;;;;;;;;20.75;19.50;;;;;;;;5013181;28;51046;-61
2021/09/25 00:41:36;;;;;;;;;21.50;21.50;;;;;;;;5012492;28;51074;-60
2021/09/25 00:44:02;;;;;;;;;25.25;22.50;;;;;;;;5013709;28;50986;-62
2021/09/25 00:46:27;;;;;;;;;19.75;18.50;;;;;;;;5007462;28;51068;-62
2021/09/25 00:48:52;;;;;;;;;25.75;24.00;;;;;;;;4993771;28;51594;-60
2021/09/25 00:51:18;;;;;;;;;23.75;21.25;;;;;;;;4993762;28;50945;-62
2021/09/25 00:53:43;;;;;;;;;20.75;20.50;;;;;;;;4993623;28;50904;-61
2021/09/25 00:56:09;;;;;;;;;26.50;23.50;;;;;;;;4995038;28;51204;-60
2021/09/25 00:58:38;;;;;;;;;21.00;19.00;;;;;;;;5010197;28;51101;-60
2021/09/25 01:01:04;;;;;;;;;20.25;19.50;;;;;;;;4994023;28;51036;-60
2021/09/25 01:03:29;;;;;;;;;20.75;20.50;;;;;;;;5006388;28;51196;-60
2021/09/25 01:05:54;;;;;;;;;21.50;21.00;;;;;;;;5009599;28;51240;-60
2021/09/25 01:08:22;;;;;;;;;19.75;19.25;;;;;;;;5001963;28;51152;-60
2021/09/25 01:10:48;;;;;;;;;20.50;20.50;;;;;;;;5005190;28;51178;-60
2021/09/25 01:13:13;;;;;;;;;20.75;19.75;;;;;;;;5000500;28;50971;-60
2021/09/25 01:15:38;;;;;;;;;17.50;17.25;;;;;;;;4999121;28;51225;-62
2021/09/25 01:18:03;;;;;;;;;23.50;21.50;;;;;;;;5005322;28;54332;-61
2021/09/25 01:20:29;;;;;;;;;22.00;22.00;;;;;;;;4993252;28;51066;-61
2021/09/25 01:22:54;;;;;;;;;21.00;19.00;;;;;;;;4993551;28;50849;-61
2021/09/25 01:25:19;;;;;;;;;22.25;20.25;;;;;;;;5005161;28;50857;-61
2021/09/25 01:27:44;;;;;;;;;23.25;21.00;;;;;;;;4994721;28;50978;-63
2021/09/25 01:30:11;;;;;;;;;23.00;22.00;;;;;;;;4993144;28;51087;-60
2021/09/25 01:32:37;;;;;;;;;21.75;21.00;;;;;;;;4992111;28;51026;-61
2021/09/25 01:35:02;;;;;;;;;23.50;22.75;;;;;;;;5004065;28;51160;-61
2021/09/25 01:37:28;;;;;;;;;25.25;23.75;;;;;;;;4993244;28;53034;-61
2021/09/25 01:39:53;;;;;;;;;23.00;20.50;;;;;;;;4992627;28;51106;-60
2021/09/25 01:42:18;;;;;;;;;23.00;21.50;;;;;;;;4994579;28;51211;-60
2021/09/25 01:44:45;;;;;;;;;23.25;22.25;;;;;;;;4993407;28;51059;-60
2021/09/25 01:47:10;;;;;;;;;25.50;24.00;;;;;;;;4993110;28;50935;-60
2021/09/25 01:49:35;;;;;;;;;22.75;20.75;;;;;;;;4992817;28;50986;-61
2021/09/25 01:52:01;;;;;;;;;24.50;24.00;;;;;;;;4996090;28;51086;-61
2021/09/25 01:54:26;;;;;;;;;24.00;24.00;;;;;;;;4996229;28;51011;-61
2021/09/25 01:56:51;;;;;;;;;22.50;22.50;;;;;;;;5002542;28;50917;-61
2021/09/25 01:59:16;;;;;;;;;25.00;24.75;;;;;;;;4993048;28;51075;-61
2021/09/25 02:01:42;;;;;;;;;21.00;20.50;;;;;;;;5006135;28;51364;-60
2021/09/25 02:04:07;;;;;;;;;22.75;22.00;;;;;;;;5005154;28;51145;-60
2021/09/25 02:06:32;;;;;;;;;24.00;23.00;;;;;;;;5001948;28;51784;-60
2021/09/25 02:08:57;;;;;;;;;23.25;23.00;;;;;;;;4992646;28;50991;-61
2021/09/25 02:11:23;;;;;;;;;25.25;23.25;;;;;;;;4997232;28;51034;-61
2021/09/25 02:13:49;;;;;;;;;19.25;18.75;;;;;;;;5004122;28;51196;-60
2021/09/25 02:16:14;;;;;;;;;25.75;23.00;;;;;;;;4996284;28;52128;-60
2021/09/25 02:18:40;;;;;;;;;20.25;19.75;;;;;;;;5005424;28;51356;-60
2021/09/25 02:21:05;;;;;;;;;21.50;20.50;;;;;;;;5004409;28;51055;-60
2021/09/25 02:23:32;;;;;;;;;27.25;26.25;;;;;;;;4993955;28;51365;-61
2021/09/25 02:25:57;;;;;;;;;48.25;41.00;;;;;;;;4992410;28;52904;-61
2021/09/25 02:28:22;;;;;;;;;64.75;51.75;;;;;;;;4992387;28;51023;-61
2021/09/25 02:30:47;;;;;;;;;58.75;48.25;;;;;;;;4992475;28;51129;-61
2021/09/25 02:33:13;;;;;;;;;61.50;50.50;;;;;;;;5006575;28;51343;-61
2021/09/25 02:35:38;;;;;;;;;57.50;47.50;;;;;;;;4995500;28;52165;-60
2021/09/25 02:38:03;;;;;;;;;67.25;53.50;;;;;;;;5003153;28;52174;-61
2021/09/25 02:40:29;;;;;;;;;66.25;53.25;;;;;;;;4996127;28;50991;-61
2021/09/25 02:42:54;;;;;;;;;65.00;51.25;;;;;;;;5006869;28;51242;-61
2021/09/25 02:45:20;;;;;;;;;60.75;48.25;;;;;;;;4995670;28;50908;-61
2021/09/25 02:47:45;;;;;;;;;56.50;46.75;;;;;;;;4995824;28;50843;-62
2021/09/25 02:50:12;;;;;;;;;58.50;48.25;;;;;;;;5000025;28;51107;-62
2021/09/25 02:52:38;;;;;;;;;65.75;50.75;;;;;;;;5011844;28;51093;-61
2021/09/25 02:55:04;;;;;;;;;61.00;49.50;;;;;;;;4981887;28;51033;-61
2021/09/25 02:57:29;;;;;;;;;58.00;47.75;;;;;;;;4995462;28;50997;-61
2021/09/25 02:59:54;;;;;;;;;49.50;42.75;;;;;;;;4995566;28;50907;-61
2021/09/25 03:02:19;;;;;;;;;50.75;43.00;;;;;;;;5008773;28;51229;-61
2021/09/25 03:04:45;;;;;;;;;48.00;40.50;;;;;;;;5000968;28;51777;-61
2021/09/25 03:07:10;;;;;;;;;46.75;38.00;;;;;;;;5014468;28;50954;-61
2021/09/25 03:09:35;;;;;;;;;49.00;40.50;;;;;;;;5012827;28;51317;-61
2021/09/25 03:12:01;;;;;;;;;43.50;38.00;;;;;;;;5001734;28;51270;-61
2021/09/25 03:14:26;;;;;;;;;48.25;41.75;;;;;;;;5007595;28;51091;-61
2021/09/25 03:16:52;;;;;;;;;39.25;35.00;;;;;;;;5010599;28;51119;-61
2021/09/25 03:19:17;;;;;;;;;40.25;35.75;;;;;;;;4995549;28;51117;-61
2021/09/25 03:21:42;;;;;;;;;41.50;35.75;;;;;;;;5012556;28;51086;-60
2021/09/25 03:24:07;;;;;;;;;33.75;32.00;;;;;;;;5014401;28;51913;-60
2021/09/25 03:26:33;;;;;;;;;37.00;33.00;;;;;;;;5012290;28;50940;-62
2021/09/25 03:28:58;;;;;;;;;36.25;32.00;;;;;;;;4994673;28;51146;-61
2021/09/25 03:31:23;;;;;;;;;38.25;34.50;;;;;;;;4994959;28;51260;-61
2021/09/25 03:33:48;;;;;;;;;39.00;35.00;;;;;;;;4995240;28;51868;-61
2021/09/25 03:36:13;;;;;;;;;39.50;34.00;;;;;;;;4999646;28;50956;-61
2021/09/25 03:38:39;;;;;;;;;38.00;33.00;;;;;;;;5003666;28;51370;-61
2021/09/25 03:41:04;;;;;;;;;40.50;34.75;;;;;;;;4994702;28;51202;-61
2021/09/25 03:43:29;;;;;;;;;37.00;32.75;;;;;;;;4994992;28;51964;-62
2021/09/25 03:45:55;;;;;;;;;37.50;34.00;;;;;;;;4994972;28;51040;-61
2021/09/25 03:48:20;;;;;;;;;39.50;32.00;;;;;;;;5000993;28;51054;-61
2021/09/25 03:50:45;;;;;;;;;34.25;32.25;;;;;;;;5004291;28;51058;-61
2021/09/25 03:53:11;;;;;;;;;32.75;31.50;;;;;;;;5014516;28;52030;-61
2021/09/25 03:55:36;;;;;;;;;34.50;32.00;;;;;;;;5013507;28;51177;-61
2021/09/25 03:58:01;;;;;;;;;33.25;32.00;;;;;;;;5013283;28;51125;-62
2021/09/25 04:00:26;;;;;;;;;31.25;30.25;;;;;;;;5001780;28;50822;-62
2021/09/25 04:02:52;;;;;;;;;35.25;31.75;;;;;;;;4994353;28;50912;-61
2021/09/25 04:05:18;;;;;;;;;35.25;32.75;;;;;;;;4994090;28;51075;-61
2021/09/25 04:07:43;;;;;;;;;30.25;29.25;;;;;;;;5010367;28;50916;-60
2021/09/25 04:10:09;;;;;;;;;33.75;30.75;;;;;;;;5002784;28;51103;-61
2021/09/25 04:12:34;;;;;;;;;30.75;30.00;;;;;;;;4994628;28;52690;-60
2021/09/25 04:15:00;;;;;;;;;34.25;31.75;;;;;;;;4999818;28;50906;-61
2021/09/25 04:17:25;;;;;;;;;32.50;32.00;;;;;;;;5011952;28;50969;-61
2021/09/25 04:19:50;;;;;;;;;39.50;33.00;;;;;;;;5003533;28;50934;-61
2021/09/25 04:22:15;;;;;;;;;40.50;34.00;;;;;;;;5013828;28;51713;-60
2021/09/25 04:24:42;;;;;;;;;35.25;33.00;;;;;;;;5011859;28;50986;-61
2021/09/25 04:27:07;;;;;;;;;36.25;32.50;;;;;;;;4995718;28;51288;-62
2021/09/25 04:29:32;;;;;;;;;33.50;31.75;;;;;;;;4994529;28;50939;-61
2021/09/25 04:31:58;;;;;;;;;32.75;30.25;;;;;;;;5011370;28;52008;-60
2021/09/25 04:34:23;;;;;;;;;30.00;29.25;;;;;;;;5005970;28;50959;-62
2021/09/25 04:36:49;;;;;;;;;33.50;31.50;;;;;;;;4995341;28;51057;-62
2021/09/25 04:39:14;;;;;;;;;28.75;27.00;;;;;;;;4997866;28;51092;-61
2021/09/25 04:41:39;;;;;;;;;28.00;27.00;;;;;;;;4994096;28;51160;-62
2021/09/25 04:44:04;;;;;;;;;31.50;27.75;;;;;;;;4995998;28;51093;-61
2021/09/25 04:46:30;;;;;;;;;27.25;25.75;;;;;;;;4995021;28;50814;-61
2021/09/25 04:48:55;;;;;;;;;22.50;20.00;;;;;;;;4994093;28;51206;-62
2021/09/25 04:51:20;;;;;;;;;24.00;24.00;;;;;;;;4993507;28;51067;-61
2021/09/25 04:53:45;;;;;;;;;34.50;30.25;;;;;;;;4992709;28;51123;-61
2021/09/25 04:56:11;;;;;;;;;34.50;33.25;;;;;;;;4993889;28;50908;-61
2021/09/25 04:58:37;;;;;;;;;40.00;33.25;;;;;;;;4998029;28;50852;-61
2021/09/25 05:01:03;;;;;;;;;33.75;32.75;;;;;;;;5003178;28;52891;-61
2021/09/25 05:03:28;;;;;;;;;38.50;34.25;;;;;;;;5008381;28;51416;-61
2021/09/25 05:05:54;;;;;;;;;37.75;33.25;;;;;;;;5004478;28;50959;-61
2021/09/25 05:08:19;;;;;;;;;31.25;30.50;;;;;;;;4994136;28;50916;-64
2021/09/25 05:10:44;;;;;;;;;35.00;32.00;;;;;;;;4998055;28;52466;-61
2021/09/25 05:13:09;;;;;;;;;33.50;32.50;;;;;;;;5010396;28;51139;-61
2021/09/25 05:15:35;;;;;;;;;40.00;36.00;;;;;;;;5003124;28;51149;-61
2021/09/25 05:18:00;;;;;;;;;37.75;34.50;;;;;;;;4998118;28;51316;-61
2021/09/25 05:20:25;;;;;;;;;39.75;36.00;;;;;;;;5005851;28;50990;-62
2021/09/25 05:22:50;;;;;;;;;35.25;32.00;;;;;;;;4992304;28;51023;-61
2021/09/25 05:25:16;;;;;;;;;46.00;39.25;;;;;;;;4993556;28;50923;-62
2021/09/25 05:27:42;;;;;;;;;38.50;35.50;;;;;;;;5004860;28;53025;-62
2021/09/25 05:30:08;;;;;;;;;41.00;36.50;;;;;;;;5004893;28;51068;-60
2021/09/25 05:32:33;;;;;;;;;45.25;37.75;;;;;;;;4992778;28;50975;-61
2021/09/25 05:34:58;;;;;;;;;44.25;37.00;;;;;;;;4993525;28;51109;-60
2021/09/25 05:37:23;;;;;;;;;33.00;31.50;;;;;;;;5003247;28;51130;-60
2021/09/25 05:39:54;;;;;;;;;41.50;37.25;;;;;;;;4993421;28;52634;-61
2021/09/25 05:42:20;;;;;;;;;41.75;36.50;;;;;;;;5011597;28;51181;-60
2021/09/25 05:44:45;;;;;;;;;42.25;36.00;;;;;;;;5013173;28;51237;-60
2021/09/25 05:47:11;;;;;;;;;42.50;37.75;;;;;;;;5008885;28;51983;-61
2021/09/25 05:49:36;;;;;;;;;41.25;37.00;;;;;;;;4992835;28;51162;-62
2021/09/25 05:52:03;;;;;;;;;46.50;39.00;;;;;;;;5006320;28;51003;-61
2021/09/25 05:54:28;;;;;;;;;46.00;38.50;;;;;;;;5003720;28;50955;-63
2021/09/25 05:56:53;;;;;;;;;45.25;37.75;;;;;;;;4994406;28;51375;-61
2021/09/25 05:59:18;;;;;;;;;45.75;38.75;;;;;;;;5006463;28;51142;-61
2021/09/25 06:01:44;;;;;;;;;41.50;37.25;;;;;;;;5012035;28;51047;-61
2021/09/25 06:04:09;;;;;;;;;43.00;35.50;;;;;;;;5013142;28;51011;-61
2021/09/25 06:06:34;;;;;;;;;40.50;36.25;;;;;;;;4997196;28;50996;-61
2021/09/25 06:08:59;;;;;;;;;42.50;35.25;;;;;;;;4996459;28;51098;-62
2021/09/25 06:11:25;;;;;;;;;39.00;34.75;;;;;;;;4998566;28;51786;-61
2021/09/25 06:13:50;;;;;;;;;42.25;36.50;;;;;;;;5010824;28;50887;-62
2021/09/25 06:16:15;;;;;;;;;42.25;35.75;;;;;;;;5015576;28;51015;-61
2021/09/25 06:18:40;;;;;;;;;39.75;34.25;;;;;;;;5008551;28;50892;-61
2021/09/25 06:21:06;;;;;;;;;38.75;34.75;;;;;;;;4992103;28;51112;-62
2021/09/25 06:23:31;;;;;;;;;44.25;39.00;;;;;;;;5015927;28;50822;-61
2021/09/25 06:25:56;;;;;;;;;44.25;37.25;;;;;;;;5001048;28;51316;-62
2021/09/25 06:28:22;;;;;;;;;41.50;36.50;;;;;;;;5015966;28;52189;-61
2021/09/25 06:30:47;;;;;;;;;44.50;37.00;;;;;;;;5015908;28;50855;-61
2021/09/25 06:33:12;;;;;;;;;43.50;37.25;;;;;;;;5014648;28;51132;-61
2021/09/25 06:35:37;;;;;;;;;42.75;36.50;;;;;;;;5013547;28;50836;-62
2021/09/25 06:38:03;;;;;;;;;44.50;36.75;;;;;;;;4998564;28;50957;-61
2021/09/25 06:40:29;;;;;;;;;47.50;39.75;;;;;;;;4995880;28;50905;-61
2021/09/25 06:42:54;;;;;;;;;42.25;36.00;;;;;;;;5013040;28;51085;-61
2021/09/25 06:45:19;;;;;;;;;42.75;38.25;;;;;;;;5007867;28;51040;-61
2021/09/25 06:47:44;;;;;;;;;53.00;43.00;;;;;;;;4995799;28;50899;-61
2021/09/25 06:50:10;;;;;;;;;48.00;40.00;;;;;;;;4995322;28;50938;-60
2021/09/25 06:52:35;;;;;;;;;41.75;36.00;;;;;;;;4992357;28;51133;-60
2021/09/25 06:55:01;;;;;;;;;45.00;37.00;;;;;;;;4976169;28;51074;-63
2021/09/25 06:57:29;;;;;;;;;47.50;40.00;;;;;;;;4990777;28;51902;-61
2021/09/25 06:59:55;;;;;;;;;45.00;38.00;;;;;;;;4981790;28;51025;-61
2021/09/25 07:02:20;;;;;;;;;41.00;36.25;;;;;;;;4994447;28;51158;-61
2021/09/25 07:04:45;;;;;;;;;46.50;39.50;;;;;;;;4976022;28;51236;-60
2021/09/25 07:07:10;;;;;;;;;43.75;35.50;;;;;;;;4980413;28;51927;-61
2021/09/25 07:09:35;;;;;;;;;43.50;36.75;;;;;;;;4980134;28;50847;-60
2021/09/25 07:12:01;;;;;;;;;45.75;38.00;;;;;;;;4979101;28;50795;-61
2021/09/25 07:14:26;;;;;;;;;46.25;37.75;;;;;;;;4976679;28;51162;-60
2021/09/25 07:16:51;;;;;;;;;45.00;39.75;;;;;;;;4990292;28;52155;-62
2021/09/25 07:19:16;;;;;;;;;41.00;35.00;;;;;;;;4974755;28;50966;-61
2021/09/25 07:21:42;;;;;;;;;37.25;32.75;;;;;;;;4975555;28;50916;-60
2021/09/25 07:24:07;;;;;;;;;39.00;35.25;;;;;;;;4979428;28;51384;-61
2021/09/25 07:26:32;;;;;;;;;38.25;33.50;;;;;;;;4983543;28;51214;-62
2021/09/25 07:28:57;;;;;;;;;37.25;33.25;;;;;;;;4984071;28;50955;-62
2021/09/25 07:31:22;;;;;;;;;37.00;32.75;;;;;;;;4975080;28;51015;-62
2021/09/25 07:33:48;;;;;;;;;31.75;30.25;;;;;;;;4975559;28;51110;-62
2021/09/25 07:36:13;;;;;;;;;35.75;32.75;;;;;;;;4974272;28;51072;-62
2021/09/25 07:38:38;;;;;;;;;39.25;33.25;;;;;;;;4981093;28;51127;-63
2021/09/25 07:41:04;;;;;;;;;35.25;32.00;;;;;;;;4977798;28;50908;-63
2021/09/25 07:43:29;;;;;;;;;33.50;30.75;;;;;;;;4982684;28;51128;-62
2021/09/25 07:45:58;;;;;;;;;33.25;31.00;;;;;;;;4981440;28;51043;-62
2021/09/25 07:48:23;;;;;;;;;27.00;26.75;;;;;;;;4980160;28;51276;-63
2021/09/25 07:50:48;;;;;;;;;33.50;31.25;;;;;;;;4975552;28;51198;-63
2021/09/25 07:53:14;;;;;;;;;30.00;29.00;;;;;;;;4994680;28;51179;-62
2021/09/25 07:55:39;;;;;;;;;37.25;33.00;;;;;;;;4998744;28;51790;-65
2021/09/25 07:58:04;;;;;;;;;34.00;31.25;;;;;;;;5013962;28;50988;-62
2021/09/25 08:00:29;;;;;;;;;28.50;27.50;;;;;;;;5013731;28;51161;-61
2021/09/25 08:02:55;;;;;;;;;30.50;29.00;;;;;;;;4990668;28;51191;-61
2021/09/25 08:05:20;;;;;;;;;32.25;30.00;;;;;;;;4996300;28;52051;-62
2021/09/25 08:07:45;;;;;;;;;31.75;29.00;;;;;;;;4997062;28;51098;-62
2021/09/25 08:10:12;;;;;;;;;32.75;30.75;;;;;;;;5006784;28;51226;-61
2021/09/25 08:12:37;;;;;;;;;37.00;33.25;;;;;;;;5011734;28;51326;-62
2021/09/25 08:15:03;;;;;;;;;33.00;31.00;;;;;;;;4997761;28;50921;-61
2021/09/25 08:17:28;;;;;;;;;31.75;30.50;;;;;;;;4997245;28;50867;-62
2021/09/25 08:19:54;;;;;;;;;37.00;32.75;;;;;;;;5006548;28;50906;-61
2021/09/25 08:22:19;;;;;;;;;35.75;32.25;;;;;;;;5013925;28;51053;-61
2021/09/25 08:24:44;;;;;;;;;30.75;29.75;;;;;;;;5013292;28;50968;-62
2021/09/25 08:27:10;;;;;;;;;35.00;32.00;;;;;;;;5011960;28;50946;-63
2021/09/25 08:29:36;;;;;;;;;32.25;30.50;;;;;;;;5013635;28;51153;-62
2021/09/25 08:32:01;;;;;;;;;35.25;31.50;;;;;;;;5013295;28;51299;-62
2021/09/25 08:34:26;;;;;;;;;35.25;32.00;;;;;;;;5012694;28;52838;-62
2021/09/25 08:36:51;;;;;;;;;31.50;30.00;;;;;;;;5011870;28;51050;-62
2021/09/25 08:39:17;;;;;;;;;36.00;31.50;;;;;;;;4998417;28;50947;-63
2021/09/25 08:41:43;;;;;;;;;36.50;32.75;;;;;;;;4999410;28;51148;-63
2021/09/25 08:44:08;;;;;;;;;33.25;31.00;;;;;;;;4999039;28;52864;-62
2021/09/25 08:46:34;;;;;;;;;33.75;31.00;;;;;;;;5004040;28;50993;-62
2021/09/25 08:49:00;;;;;;;;;28.75;27.25;;;;;;;;4998426;28;51428;-62
2021/09/25 08:51:25;;;;;;;;;34.25;31.75;;;;;;;;4993301;28;51107;-62
2021/09/25 08:53:50;;;;;;;;;33.00;31.00;;;;;;;;5006264;28;51745;-62
2021/09/25 08:56:15;;;;;;;;;31.00;30.25;;;;;;;;5012346;28;50963;-62
2021/09/25 08:58:41;;;;;;;;;31.00;29.50;;;;;;;;5013101;28;50971;-63
2021/09/25 09:01:06;;;;;;;;;32.00;30.25;;;;;;;;5012649;28;51201;-62
2021/09/25 09:03:36;;;;;;;;;33.25;30.75;;;;;;;;5005005;28;53677;-62
2021/09/25 09:06:01;;;;;;;;;35.25;32.00;;;;;;;;5009019;28;51218;-62
2021/09/25 09:08:27;;;;;;;;;31.00;29.00;;;;;;;;4993266;28;50986;-63
2021/09/25 09:10:53;;;;;;;;;37.00;33.75;;;;;;;;4993336;28;50983;-61
2021/09/25 09:13:19;;;;;;;;;31.00;29.25;;;;;;;;5006225;28;51189;-62
2021/09/25 09:15:47;;;;;;;;;24.00;24.00;;;;;;;;5002252;28;51056;-62
2021/09/25 09:18:13;;;;;;;;;23.50;23.50;;;;;;;;5006166;28;51023;-62
2021/09/25 09:20:39;;;;;;;;;23.50;23.50;;;;;;;;4997156;28;51163;-62
2021/09/25 09:23:17;;;;;;;;;26.50;25.50;;;;;;;;4992111;28;51018;-62
2021/09/25 09:25:43;;;;;;;;;24.75;24.50;;;;;;;;5006473;28;51199;-62
2021/09/25 09:28:12;;;;;;;;;26.75;25.00;;;;;;;;4981118;28;51066;-62
2021/09/25 09:30:45;;;;;;;;;23.25;23.00;;;;;;;;5002760;28;51270;-62
2021/09/25 09:33:10;;;;;;;;;24.25;24.25;;;;;;;;4991451;28;51479;-61
2021/09/25 09:35:35;;;;;;;;;29.00;27.50;;;;;;;;4999873;28;50993;-62
2021/09/25 09:38:00;;;;;;;;;27.00;27.00;;;;;;;;5003123;28;51259;-61
2021/09/25 09:40:26;;;;;;;;;24.00;23.00;;;;;;;;4999038;28;51234;-62
2021/09/25 09:42:52;;;;;;;;;23.50;23.50;;;;;;;;5000294;28;51666;-63
2021/09/25 09:45:28;;;;;;;;;27.00;25.25;;;;;;;;4991187;28;51055;-61
2021/09/25 09:47:56;;;;;;;;;20.50;20.00;;;;;;;;5000817;28;51085;-62
2021/09/25 09:50:21;;;;;;;;;23.00;22.75;;;;;;;;5005118;28;51166;-62
2021/09/25 09:52:47;;;;;;;;;24.50;24.50;;;;;;;;4996295;28;51014;-61
2021/09/25 09:55:22;;;;;;;;;24.50;23.50;;;;;;;;4991311;28;50904;-61
2021/09/25 09:57:58;;;;;;;;;21.25;21.25;;;;;;;;4992473;28;50975;-62
2021/09/25 10:00:24;;;;;;;;;21.75;21.75;;;;;;;;4992323;28;51041;-62
2021/09/25 10:02:49;;;;;;;;;21.67;19.33;;;;;;;;4991684;28;51158;-62
2021/09/25 10:05:14;;;;;;;;;21.00;19.25;;;;;;;;4991395;28;50987;-62
2021/09/25 10:07:39;;;;;;;;;20.67;20.33;;;;;;;;4990479;28;51171;-62
2021/09/25 10:10:05;;;;;;;;;17.00;16.67;;;;;;;;4992363;28;50937;-61
2021/09/25 10:12:30;;;;;;;;;25.25;25.25;;;;;;;;5003965;28;51826;-63
2021/09/25 10:14:58;;;;;;;;;22.25;20.25;;;;;;;;4997742;28;51038;-62
2021/09/25 10:17:23;;;;;;;;;18.50;17.75;;;;;;;;5008276;28;50964;-62
2021/09/25 10:19:49;;;;;;;;;16.25;16.25;;;;;;;;4997064;28;51115;-64
2021/09/25 10:22:27;;;;;;;;;22.50;21.50;;;;;;;;5008102;28;52202;-59
2021/09/25 10:24:57;;;;;;;;;22.75;20.50;;;;;;;;5007872;28;51376;-57
2021/09/25 10:27:26;;;;;;;;;18.75;17.75;;;;;;;;5010982;28;51090;-59
2021/09/25 10:29:51;;;;;;;;;21.00;20.50;;;;;;;;5011141;28;50913;-59
2021/09/25 10:32:22;;;;;;;;;21.50;20.75;;;;;;;;5002315;28;51098;-61
2021/09/25 10:35:05;;;;;;;;;21.50;20.75;;;;;;;;4998928;28;51126;-61
2021/09/25 10:37:32;;;;;;;;;23.50;23.50;;;;;;;;4995964;28;51126;-59
2021/09/25 10:39:58;;;;;;;;;22.50;22.25;;;;;;;;5009502;28;51152;-61
2021/09/25 10:42:37;;;;;;;;;18.25;18.25;;;;;;;;4997506;28;51006;-60
2021/09/25 10:45:03;;;;;;;;;16.00;16.00;;;;;;;;4993726;28;50967;-60
2021/09/25 10:47:32;;;;;;;;;17.25;17.00;;;;;;;;4997384;28;51632;-60
2021/09/25 10:49:59;;;;;;;;;26.00;25.00;;;;;;;;5009904;28;51169;-62
2021/09/25 10:52:41;;;;;;;;;26.75;25.75;;;;;;;;5003698;28;54137;-59
2021/09/25 10:55:16;;;;;;;;;18.25;18.25;;;;;;;;5013845;28;51030;-60
2021/09/25 10:57:41;;;;;;;;;23.00;22.50;;;;;;;;5012674;28;51038;-60
2021/09/25 11:00:22;;;;;;;;;16.25;16.25;;;;;;;;5012410;28;51329;-60
2021/09/25 11:02:48;;;;;;;;;21.00;20.25;;;;;;;;5013932;28;51814;-60
2021/09/25 11:05:17;;;;;;;;;21.75;20.50;;;;;;;;5013735;28;50988;-60
2021/09/25 11:07:43;;;;;;;;;19.50;19.50;;;;;;;;5013681;28;51028;-60
2021/09/25 11:10:09;;;;;;;;;18.25;18.25;;;;;;;;5014246;28;50852;-61
2021/09/25 11:12:45;;;;;;;;;21.75;19.75;;;;;;;;5011003;28;52637;-61
2021/09/25 11:15:30;;;;;;;;;15.67;15.67;;;;;;;;4997518;28;51061;-61
2021/09/25 11:18:14;;;;;;;;;18.33;18.00;;;;;;;;5001327;28;51223;-63
2021/09/25 11:20:40;;;;;;;;;18.33;18.00;;;;;;;;4997319;28;51306;-59
2021/09/25 11:23:05;;;;;;;;;17.33;16.33;;;;;;;;5004327;28;51904;-59
2021/09/25 11:25:32;;;;;;;;;15.50;15.50;;;;;;;;5006336;28;51133;-60
2021/09/25 11:28:01;;;;;;;;;16.67;16.67;;;;;;;;5009405;28;50974;-59
2021/09/25 11:30:27;;;;;;;;;16.67;15.00;;;;;;;;4993004;28;50981;-60
2021/09/25 11:32:57;;;;;;;;;17.00;16.00;;;;;;;;5000963;28;51997;-60
2021/09/25 11:35:23;;;;;;;;;17.75;17.75;;;;;;;;5012919;28;50897;-61
2021/09/25 11:38:05;;;;;;;;;14.67;14.67;;;;;;;;5257279;23;51737;-57
2021/09/25 11:40:33;;;;;;;;;15.00;15.00;;;;;;;;5000280;28;51417;-54
2021/09/25 11:42:59;;;;;;;;;16.00;16.00;;;;;;;;4992636;28;51717;-47
2021/09/25 11:45:24;;;;;;;;;17.00;15.67;;;;;;;;4992778;28;50937;-50
2021/09/25 11:47:50;;;;;;;;;15.00;15.00;;;;;;;;4992460;28;51059;-49
2021/09/25 11:50:15;;;;;;;;;15.33;15.33;;;;;;;;5003109;28;51965;-48
2021/09/25 11:52:42;;;;;;;;;16.50;16.50;;;;;;;;5013093;28;51042;-48
2021/09/25 11:55:07;;;;;;;;;16.00;16.00;;;;;;;;5003898;28;50976;-51
2021/09/25 11:57:33;;;;;;;;;17.00;17.00;;;;;;;;4997909;28;51233;-51
2021/09/25 11:59:58;;;;;;;;;15.33;15.00;;;;;;;;4992694;28;52237;-57
2021/09/25 12:02:38;;;;;;;;;17.75;17.75;;;;;;;;4994762;28;52341;-56
2021/09/25 12:05:05;;;;;;;;;14.00;14.00;;;;;;;;5011829;28;50916;-56
2021/09/25 12:07:40;;;;;;;;;10.67;10.33;;;;;;;;5007323;28;51105;-50
2021/09/25 12:10:06;;;;;;;;;16.25;16.25;;;;;;;;5010640;28;51190;-51
2021/09/25 12:12:31;;;;;;;;;14.33;14.33;;;;;;;;5013218;28;52046;-50
2021/09/25 12:14:56;;;;;;;;;13.33;13.00;;;;;;;;5014673;28;51025;-48
2021/09/25 12:17:22;;;;;;;;;18.75;18.25;;;;;;;;5004422;28;51002;-51
2021/09/25 12:19:47;;;;;;;;;17.50;17.00;;;;;;;;5006764;28;51085;-50
2021/09/25 12:22:19;;;;;;;;;17.75;17.50;;;;;;;;5000190;28;51849;-50
2021/09/25 12:24:45;;;;;;;;;16.25;16.25;;;;;;;;4991951;28;51030;-50
2021/09/25 12:27:10;;;;;;;;;19.25;18.25;;;;;;;;4992133;28;51401;-50
2021/09/25 12:29:35;;;;;;;;;15.00;14.33;;;;;;;;4991856;28;51191;-53
2021/09/25 12:32:01;;;;;;;;;16.25;16.25;;;;;;;;4991070;28;51964;-53
2021/09/25 12:34:27;;;;;;;;;16.50;16.25;;;;;;;;4993666;28;51110;-51
2021/09/25 12:36:54;;;;;;;;;15.00;14.25;;;;;;;;5013774;28;51002;-50
2021/09/25 12:39:23;;;;;;;;;16.00;15.00;;;;;;;;4991893;28;51493;-51
2021/09/25 12:41:59;;;;;;;;;14.67;14.33;;;;;;;;4979479;28;51960;-52
2021/09/25 12:44:26;;;;;;;;;20.00;19.25;;;;;;;;4987333;28;51092;-48
2021/09/25 12:46:58;;;;;;;;;15.33;15.33;;;;;;;;4985183;28;51251;-48
2021/09/25 12:49:33;;;;;;;;;16.00;15.00;;;;;;;;4999375;28;51236;-52
2021/09/25 12:51:59;;;;;;;;;16.00;15.00;;;;;;;;4978210;28;52525;-51
2021/09/25 12:54:31;;;;;;;;;18.00;18.00;;;;;;;;4977012;28;50959;-52
2021/09/25 12:57:06;;;;;;;;;18.00;18.00;;;;;;;;4990150;28;51235;-51
2021/09/25 12:59:36;;;;;;;;;13.00;13.00;;;;;;;;4989217;28;51066;-52
2021/09/25 13:02:03;;;;;;;;;17.25;16.75;;;;;;;;4982426;28;52368;-51
2021/09/25 13:04:29;;;;;;;;;18.75;18.75;;;;;;;;4967893;28;51037;-50
2021/09/25 13:06:55;;;;;;;;;19.25;18.25;;;;;;;;4990388;28;50979;-48
2021/09/25 13:09:23;;;;;;;;;18.50;16.50;;;;;;;;4980862;28;51312;-48
2021/09/25 13:12:24;;;;;;;;;13.33;13.33;;;;;;;;4978552;28;50975;-50
2021/09/25 13:15:07;;;;;;;;;18.67;18.33;;;;;;;;4929427;28;51124;-53
2021/09/25 13:17:33;;;;;;;;;18.00;17.00;;;;;;;;4974341;28;51357;-52
2021/09/25 13:19:58;;;;;;;;;19.50;19.00;;;;;;;;4978872;28;51080;-49
2021/09/25 13:22:24;;;;;;;;;15.67;15.67;;;;;;;;4979166;28;51671;-50
2021/09/25 13:24:49;;;;;;;;;19.33;18.33;;;;;;;;4972301;28;50939;-48
2021/09/25 13:27:15;;;;;;;;;19.00;17.00;;;;;;;;4973648;28;51087;-51
2021/09/25 13:29:40;;;;;;;;;17.00;17.00;;;;;;;;4981796;28;51242;-50
2021/09/25 13:32:06;;;;;;;;;18.00;18.00;;;;;;;;4974020;28;52001;-49
2021/09/25 13:34:31;;;;;;;;;15.67;15.67;;;;;;;;4979012;28;51078;-48
2021/09/25 13:36:58;;;;;;;;;16.00;16.00;;;;;;;;4971650;28;50955;-51
2021/09/25 13:39:23;;;;;;;;;13.00;13.00;;;;;;;;4990334;28;51087;-52
2021/09/25 13:41:49;;;;;;;;;13.00;12.33;;;;;;;;4983508;28;50959;-54
2021/09/25 13:44:14;;;;;;;;;16.00;15.33;;;;;;;;4979697;28;50817;-51
2021/09/25 13:46:40;;;;;;;;;14.33;14.33;;;;;;;;4983821;28;51188;-53
2021/09/25 13:49:06;;;;;;;;;17.67;16.00;;;;;;;;4973124;28;51283;-52
2021/09/25 13:51:31;;;;;;;;;18.33;17.33;;;;;;;;4977656;28;52294;-51
2021/09/25 13:53:57;;;;;;;;;13.00;13.00;;;;;;;;4979091;28;51215;-50
2021/09/25 13:56:22;;;;;;;;;19.33;18.00;;;;;;;;4969955;28;51267;-53
2021/09/25 13:58:48;;;;;;;;;15.00;13.67;;;;;;;;4979813;28;51186;-53
2021/09/25 14:01:13;;;;;;;;;15.00;14.00;;;;;;;;4984888;28;52518;-50
2021/09/25 14:03:38;;;;;;;;;13.33;13.33;;;;;;;;4988407;28;51281;-52
2021/09/25 14:06:03;;;;;;;;;14.33;14.33;;;;;;;;4981511;28;51099;-52
2021/09/25 14:08:30;;;;;;;;;17.00;15.33;;;;;;;;4983609;28;51230;-51
2021/09/25 14:10:55;;;;;;;;;15.67;15.00;;;;;;;;4975491;28;52237;-52